createdAt,value
2018-12-24T00:01:08.202Z,39121.62
2018-12-24T00:03:15.157Z,39087.82
2018-12-24T00:05:21.413Z,39048.23
2018-12-24T00:07:27.686Z,39049.19
2018-12-24T00:09:33.881Z,39059.82
2018-12-24T00:11:40.831Z,39015.39
2018-12-24T00:13:47.061Z,39032.78
2018-12-24T00:15:53.183Z,38988.36
2018-12-24T00:17:59.752Z,39053.05
2018-12-24T00:20:05.979Z,39060.78
2018-12-24T00:22:12.406Z,39056.92
2018-12-24T00:24:18.650Z,39045.33
2018-12-24T00:26:26.416Z,39041.47
2018-12-24T00:28:32.613Z,39065.61
2018-12-24T00:30:38.761Z,39036.64
2018-12-24T00:32:45.019Z,39049.19
2018-12-24T00:34:51.434Z,39011.53
2018-12-24T00:36:57.631Z,39043.40
2018-12-24T00:39:05.230Z,39095.55
2018-12-24T00:41:12.102Z,39073.34
2018-12-24T00:43:19.032Z,39081.06
2018-12-24T00:45:25.702Z,39048.23
2018-12-24T00:47:33.136Z,39053.05
2018-12-24T00:49:39.357Z,39063.68
2018-12-24T00:51:46.168Z,39065.61
2018-12-24T00:53:53.262Z,39058.85
2018-12-24T00:55:59.911Z,39050.16
2018-12-24T00:58:06.396Z,39063.68
2018-12-24T01:00:12.883Z,39054.02
2018-12-24T01:02:19.140Z,39060.78
2018-12-24T01:04:26.249Z,39075.27
2018-12-24T01:06:35.120Z,39066.57
2018-12-24T01:08:41.570Z,39077.20
2018-12-24T01:10:48.316Z,39081.06
2018-12-24T01:12:54.599Z,39075.27
2018-12-24T01:15:01.272Z,39089.75
2018-12-24T01:17:07.534Z,39081.06
2018-12-24T01:19:13.687Z,39073.34
2018-12-24T01:21:20.937Z,39050.16
2018-12-24T01:23:27.588Z,39088.79
2018-12-24T01:25:34.555Z,39086.86
2018-12-24T01:27:41.029Z,39121.62
2018-12-24T01:29:48.053Z,39090.72
2018-12-24T01:31:59.271Z,39050.16
2018-12-24T01:34:05.461Z,39072.37
2018-12-24T01:36:11.942Z,39110.03
2018-12-24T01:38:18.161Z,39092.65
2018-12-24T01:40:30.155Z,39040.50
2018-12-24T01:42:36.309Z,39082.03
2018-12-24T01:44:42.516Z,39125.48
2018-12-24T01:46:51.802Z,39104.24
2018-12-24T01:48:59.964Z,39051.12
2018-12-24T01:51:06.118Z,39082.03
2018-12-24T01:53:12.692Z,39069.47
2018-12-24T01:55:18.792Z,39142.87
2018-12-24T01:57:25.130Z,39104.24
2018-12-24T01:59:31.291Z,39116.79
2018-12-24T02:01:37.595Z,39099.41
2018-12-24T02:03:43.898Z,39103.27
2018-12-24T02:05:50.456Z,39031.81
2018-12-24T02:07:56.640Z,39074.30
2018-12-24T02:10:03.224Z,39092.65
2018-12-24T02:12:09.919Z,39065.61
2018-12-24T02:14:16.175Z,39112.93
2018-12-24T02:16:22.779Z,39107.13
2018-12-24T02:18:29.031Z,39086.86
2018-12-24T02:20:35.283Z,39112.93
2018-12-24T02:22:42.197Z,39098.45
2018-12-24T02:24:48.590Z,39111.96
2018-12-24T02:26:54.791Z,39074.30
2018-12-24T02:29:01.007Z,39102.30
2018-12-24T02:31:07.336Z,39112.93
2018-12-24T02:33:13.888Z,39148.66
2018-12-24T02:35:20.247Z,39122.59
2018-12-24T02:37:26.450Z,39108.10
2018-12-24T02:39:32.986Z,39100.37
2018-12-24T02:41:39.150Z,39080.09
2018-12-24T02:43:45.277Z,39136.11
2018-12-24T02:45:51.429Z,39110.03
2018-12-24T02:47:57.529Z,39119.69
2018-12-24T02:50:03.954Z,39124.52
2018-12-24T02:52:10.598Z,39139.00
2018-12-24T02:54:16.808Z,39107.13
2018-12-24T02:56:22.965Z,39125.48
2018-12-24T02:58:29.186Z,39103.27
2018-12-24T03:00:37.373Z,39119.69
2018-12-24T03:02:43.817Z,39111.00
2018-12-24T03:04:50.475Z,39124.52
2018-12-24T03:06:56.610Z,39132.24
2018-12-24T03:09:02.731Z,39089.75
2018-12-24T03:11:08.864Z,39137.07
2018-12-24T03:13:15.147Z,39115.82
2018-12-24T03:15:24.006Z,39133.21
2018-12-24T03:17:30.144Z,39127.41
2018-12-24T03:19:36.722Z,39130.31
2018-12-24T03:21:42.860Z,39142.87
2018-12-24T03:23:49.049Z,39120.65
2018-12-24T03:25:55.207Z,39118.72
2018-12-24T03:28:01.433Z,39133.21
2018-12-24T03:30:07.793Z,39100.37
2018-12-24T03:32:14.327Z,39119.69
2018-12-24T03:34:20.456Z,39110.03
2018-12-24T03:36:26.582Z,39089.75
2018-12-24T03:38:32.846Z,39136.11
2018-12-24T03:40:39.119Z,39123.55
2018-12-24T03:42:45.347Z,39124.52
2018-12-24T03:44:51.632Z,39144.80
2018-12-24T03:46:57.856Z,39134.18
2018-12-24T03:49:04.502Z,39111.96
2018-12-24T03:51:12.531Z,39158.32
2018-12-24T03:53:21.802Z,39111.96
2018-12-24T03:55:28.358Z,39117.76
2018-12-24T03:57:35.882Z,39120.65
2018-12-24T03:59:42.030Z,39118.72
2018-12-24T04:01:48.368Z,39134.18
2018-12-24T04:03:54.579Z,39165.08
2018-12-24T04:06:00.844Z,39129.35
2018-12-24T04:08:07.044Z,39134.18
2018-12-24T04:10:13.368Z,39102.30
2018-12-24T04:12:36.939Z,39128.38
2018-12-24T04:14:44.639Z,39118.72
2018-12-24T04:16:53.963Z,39140.93
2018-12-24T04:19:00.463Z,39066.57
2018-12-24T04:21:06.620Z,39134.18
2018-12-24T04:23:13.455Z,39142.87
2018-12-24T04:25:19.727Z,39147.70
2018-12-24T04:27:27.375Z,39162.18
2018-12-24T04:29:33.675Z,39171.84
2018-12-24T04:31:40.109Z,39144.80
2018-12-24T04:33:46.370Z,39151.55
2018-12-24T04:35:53.041Z,39140.93
2018-12-24T04:37:59.589Z,39151.55
2018-12-24T04:40:06.004Z,39175.70
2018-12-24T04:42:12.207Z,39167.01
2018-12-24T04:44:18.740Z,39146.73
2018-12-24T04:46:25.048Z,39160.25
2018-12-24T04:48:31.470Z,39150.59
2018-12-24T04:50:38.403Z,39154.45
2018-12-24T04:52:45.020Z,39182.46
2018-12-24T04:54:51.429Z,39171.84
2018-12-24T04:56:57.582Z,39149.62
2018-12-24T04:59:03.846Z,39140.93
2018-12-24T05:01:09.982Z,39146.73
2018-12-24T05:03:16.535Z,39163.14
2018-12-24T05:05:22.849Z,39143.83
2018-12-24T05:07:29.387Z,39166.04
2018-12-24T05:09:35.730Z,39162.18
2018-12-24T05:11:41.995Z,39164.11
2018-12-24T05:13:48.455Z,39139.00
2018-12-24T05:15:54.650Z,39129.35
2018-12-24T05:18:01.236Z,39114.86
2018-12-24T05:20:07.420Z,39139.97
2018-12-24T05:22:13.713Z,39149.62
2018-12-24T05:24:19.834Z,39152.52
2018-12-24T05:26:26.244Z,39156.39
2018-12-24T05:28:32.400Z,39157.35
2018-12-24T05:30:38.556Z,39139.00
2018-12-24T05:33:24.813Z,43498.14
2018-12-24T05:35:49.673Z,39112.93
2018-12-24T05:37:55.383Z,39100.37
2018-12-24T05:40:20.086Z,39131.28
2018-12-24T05:42:25.793Z,39175.70
2018-12-24T05:44:31.550Z,39122.59
2018-12-24T05:46:37.752Z,39127.41
2018-12-24T05:48:43.473Z,39146.73
2018-12-24T05:50:49.732Z,39110.03
2018-12-24T05:52:55.946Z,39085.89
2018-12-24T05:55:01.923Z,39114.86
2018-12-24T05:57:08.124Z,39117.76
2018-12-24T05:59:13.760Z,39116.79
2018-12-24T06:01:19.364Z,39153.49
2018-12-24T06:03:24.953Z,39135.14
2018-12-24T06:05:31.004Z,39141.90
2018-12-24T06:07:36.573Z,39098.45
2018-12-24T06:09:43.460Z,39119.69
2018-12-24T06:11:49.104Z,39128.38
2018-12-24T06:13:58.048Z,39121.62
2018-12-24T06:16:21.405Z,39152.52
2018-12-24T06:18:27.190Z,39131.28
2018-12-24T06:20:37.621Z,39131.28
2018-12-24T06:22:40.644Z,39125.48
2018-12-24T06:24:46.465Z,39115.82
2018-12-24T06:26:52.123Z,39139.97
2018-12-24T06:29:03.175Z,39132.24
2018-12-24T06:31:24.394Z,39136.11
2018-12-24T06:33:18.837Z,39132.24
2018-12-24T06:35:45.630Z,39147.70
2018-12-24T06:38:26.057Z,39106.17
2018-12-24T06:40:18.915Z,39162.18
2018-12-24T06:43:04.196Z,39132.24
2018-12-24T06:45:50.389Z,39129.35
2018-12-24T06:48:03.778Z,39111.96
2018-12-24T06:50:09.476Z,39110.03
2018-12-24T06:52:15.025Z,39082.03
2018-12-24T06:54:20.755Z,39119.69
2018-12-24T06:56:26.361Z,39099.41
2018-12-24T06:58:32.332Z,39126.45
2018-12-24T07:00:38.498Z,39139.97
2018-12-24T07:02:47.143Z,39145.76
2018-12-24T07:05:00.191Z,39138.04
2018-12-24T07:07:05.739Z,39157.35
2018-12-24T07:09:11.612Z,39145.76
2018-12-24T07:11:17.343Z,39112.93
2018-12-24T07:13:22.982Z,39144.80
2018-12-24T07:15:29.494Z,39099.41
2018-12-24T07:17:35.173Z,39121.62
2018-12-24T07:19:40.912Z,39122.59
2018-12-24T07:21:46.712Z,39131.28
2018-12-24T07:23:52.948Z,39156.39
2018-12-24T07:25:59.477Z,39131.28
2018-12-24T07:28:08.316Z,39140.93
2018-12-24T07:30:16.333Z,39080.09
2018-12-24T07:32:21.996Z,39114.86
2018-12-24T07:34:32.361Z,39129.35
2018-12-24T07:36:35.282Z,39160.25
2018-12-24T07:38:40.892Z,39107.13
2018-12-24T07:40:47.100Z,39105.20
2018-12-24T07:42:52.766Z,39088.79
2018-12-24T07:44:58.483Z,39083.96
2018-12-24T07:47:04.146Z,39088.79
2018-12-24T07:49:09.878Z,39079.13
2018-12-24T07:51:15.546Z,39077.20
2018-12-24T07:53:21.188Z,39084.92
2018-12-24T07:55:27.080Z,39101.34
2018-12-24T07:57:32.821Z,39067.54
2018-12-24T07:59:38.580Z,39068.51
2018-12-24T08:01:44.253Z,39061.75
2018-12-24T08:03:49.932Z,39103.27
2018-12-24T08:05:55.659Z,39069.47
2018-12-24T08:08:01.305Z,39044.36
2018-12-24T08:10:07.250Z,39095.55
2018-12-24T08:12:12.954Z,39064.64
2018-12-24T08:14:19.033Z,39067.54
2018-12-24T08:16:24.923Z,39061.75
2018-12-24T08:18:30.544Z,39062.71
2018-12-24T08:20:36.233Z,39051.12
2018-12-24T08:22:43.103Z,39042.43
2018-12-24T08:24:48.849Z,39050.16
2018-12-24T08:26:54.478Z,39052.09
2018-12-24T08:29:00.660Z,39089.75
2018-12-24T08:31:06.648Z,39098.45
2018-12-24T08:33:13.987Z,39037.61
2018-12-24T08:35:21.435Z,39093.62
2018-12-24T08:37:27.453Z,39060.78
2018-12-24T08:39:33.258Z,39057.88
2018-12-24T08:41:39.322Z,39054.99
2018-12-24T08:43:50.863Z,39077.20
2018-12-24T08:45:56.988Z,39070.44
2018-12-24T08:48:05.292Z,39053.05
2018-12-24T08:50:11.076Z,39054.99
2018-12-24T08:52:17.146Z,39062.71
2018-12-24T08:54:26.012Z,39073.34
2018-12-24T08:56:31.742Z,39060.78
2018-12-24T08:58:56.435Z,39026.98
2018-12-24T09:01:14.908Z,39062.71
2018-12-24T09:03:20.550Z,39037.61
2018-12-24T09:05:26.280Z,39045.33
2018-12-24T09:07:31.890Z,39042.43
2018-12-24T09:09:38.433Z,39028.91
2018-12-24T09:11:44.164Z,39023.12
2018-12-24T09:13:50.552Z,39026.98
2018-12-24T09:15:56.122Z,39002.84
2018-12-24T09:18:02.079Z,39014.43
2018-12-24T09:20:09.033Z,39006.70
2018-12-24T09:22:14.647Z,38994.15
2018-12-24T09:24:20.432Z,38974.84
2018-12-24T09:26:45.193Z,39021.19
2018-12-24T09:28:50.925Z,39056.92
2018-12-24T09:30:56.620Z,38965.18
2018-12-24T09:33:02.286Z,38942.00
2018-12-24T09:35:08.315Z,38946.83
2018-12-24T09:37:13.988Z,38968.08
2018-12-24T09:39:19.663Z,38914.96
2018-12-24T09:41:44.442Z,38909.17
2018-12-24T09:44:01.560Z,38914.00
2018-12-24T09:46:07.357Z,38913.04
2018-12-24T09:48:12.946Z,38898.55
2018-12-24T09:50:18.533Z,38836.75
2018-12-24T09:52:24.266Z,38838.68
2018-12-24T09:54:51.212Z,38809.71
2018-12-24T09:57:09.024Z,38806.82
2018-12-24T09:59:14.785Z,36980.37
2018-12-24T10:01:20.417Z,38778.81
2018-12-24T10:03:32.849Z,38768.19
2018-12-24T10:05:41.144Z,38741.16
2018-12-24T10:07:47.449Z,38752.74
2018-12-24T10:10:17.687Z,38745.02
2018-12-24T10:12:23.792Z,38708.32
2018-12-24T10:14:48.790Z,38677.43
2018-12-24T10:17:06.663Z,38711.22
2018-12-24T10:19:13.178Z,38662.94
2018-12-24T10:21:19.282Z,38565.42
2018-12-24T10:23:24.950Z,38619.49
2018-12-24T10:25:30.743Z,38592.46
2018-12-24T10:27:36.797Z,38609.84
2018-12-24T10:29:42.493Z,38566.39
2018-12-24T10:31:49.094Z,38578.94
2018-12-24T10:33:54.839Z,38584.73
2018-12-24T10:36:00.881Z,38577.97
2018-12-24T10:38:06.576Z,38549.97
2018-12-24T10:40:31.785Z,38577.01
2018-12-24T10:42:37.726Z,38562.52
2018-12-24T10:44:43.388Z,38560.59
2018-12-24T10:49:20.333Z,38584.73
2018-12-24T10:51:37.809Z,38522.94
2018-12-24T10:53:44.161Z,38497.83
2018-12-24T10:55:49.875Z,38555.77
2018-12-24T10:57:55.566Z,38528.73
2018-12-24T11:00:20.204Z,38531.63
2018-12-24T11:02:26.147Z,38520.04
2018-12-24T11:04:31.894Z,38510.39
2018-12-24T11:06:37.562Z,38532.59
2018-12-24T11:08:43.206Z,38567.35
2018-12-24T11:10:48.924Z,38555.77
2018-12-24T11:12:54.717Z,38556.73
2018-12-24T11:15:00.368Z,38553.84
2018-12-24T11:17:06.049Z,38509.42
2018-12-24T11:19:11.702Z,38511.35
2018-12-24T11:21:17.576Z,38546.11
2018-12-24T11:23:42.328Z,38516.18
2018-12-24T11:25:48.385Z,38571.21
2018-12-24T11:27:54.012Z,38554.80
2018-12-24T11:30:00.059Z,38572.18
2018-12-24T11:32:05.662Z,38542.25
2018-12-24T11:34:11.297Z,38577.01
2018-12-24T11:36:17.611Z,38550.94
2018-12-24T11:38:44.665Z,38550.94
2018-12-24T11:40:50.397Z,38549.97
2018-12-24T11:42:56.524Z,38562.52
2018-12-24T11:45:02.455Z,38539.35
2018-12-24T11:47:08.121Z,38565.42
2018-12-24T11:49:13.843Z,38544.18
2018-12-24T11:51:19.472Z,38505.56
2018-12-24T11:53:25.285Z,38547.08
2018-12-24T11:55:31.014Z,38560.59
2018-12-24T11:57:36.749Z,38575.08
2018-12-24T11:59:43.085Z,38577.97
2018-12-24T12:01:49.240Z,38592.46
2018-12-24T12:03:55.249Z,38567.35
2018-12-24T12:06:01.384Z,38548.04
2018-12-24T12:08:07.397Z,38578.94
2018-12-24T12:10:32.759Z,38553.84
2018-12-24T12:12:38.893Z,38573.14
2018-12-24T12:14:45.519Z,38541.28
2018-12-24T12:16:52.012Z,38569.29
2018-12-24T12:19:17.226Z,38574.11
2018-12-24T12:21:26.323Z,38605.98
2018-12-24T12:23:32.165Z,38599.21
2018-12-24T12:25:38.245Z,38609.84
2018-12-24T12:27:44.982Z,38604.04
2018-12-24T12:32:28.464Z,38570.25
2018-12-24T12:34:45.549Z,38550.94
2018-12-24T12:36:55.482Z,38555.77
2018-12-24T12:39:03.349Z,38542.25
2018-12-24T12:41:33.445Z,38529.70
2018-12-24T12:44:41.107Z,38555.77
2018-12-24T12:46:48.149Z,38579.91
2018-12-24T12:51:31.369Z,38553.84
2018-12-24T12:53:49.830Z,38589.56
2018-12-24T12:56:01.011Z,38605.98
2018-12-24T12:58:09.913Z,38599.21
2018-12-24T13:00:17.408Z,38573.14
2018-12-24T13:02:45.754Z,38623.36
2018-12-24T13:05:09.240Z,38622.39
2018-12-24T13:07:42.020Z,38638.80
2018-12-24T13:09:51.571Z,38623.36
2018-12-24T13:12:00.286Z,38602.11
2018-12-24T13:14:28.589Z,38623.36
2018-12-24T13:16:40.798Z,38577.01
2018-12-24T13:19:28.560Z,38585.70
2018-12-24T13:27:17.099Z,38513.28
2018-12-24T13:30:01.268Z,38500.73
2018-12-24T13:32:42.101Z,38469.84
2018-12-24T13:35:03.449Z,39248.13
2018-12-24T13:37:36.172Z,38511.35
2018-12-24T13:42:39.317Z,38521.01
2018-12-24T13:45:27.151Z,38499.77
2018-12-24T13:47:53.862Z,38523.90
2018-12-24T13:50:41.512Z,38523.90
2018-12-24T13:56:10.205Z,38030.55
2018-12-24T13:58:27.538Z,38531.63
2018-12-24T14:00:53.191Z,38533.56
2018-12-24T14:02:59.358Z,37963.94
2018-12-24T14:05:25.904Z,38525.84
2018-12-24T14:07:48.843Z,38474.66
2018-12-24T14:10:39.873Z,38493.97
2018-12-24T14:12:53.813Z,38498.80
2018-12-24T14:17:35.256Z,38593.42
2018-12-24T14:19:56.038Z,38503.63
2018-12-24T14:22:02.044Z,38509.42
2018-12-24T14:24:35.221Z,38482.39
2018-12-24T14:26:41.642Z,38462.11
2018-12-24T14:29:18.496Z,38450.52
2018-12-24T14:31:43.966Z,38498.80
2018-12-24T14:34:02.122Z,38468.87
2018-12-24T14:36:11.899Z,38486.25
2018-12-24T14:38:45.911Z,38461.14
2018-12-24T14:41:05.691Z,38446.66
2018-12-24T14:43:26.100Z,38434.11
2018-12-24T14:45:40.130Z,38421.56
2018-12-24T14:47:49.955Z,38455.35
2018-12-24T14:50:06.451Z,38442.80
2018-12-24T14:52:22.096Z,38433.14
2018-12-24T14:55:00.632Z,38418.66
2018-12-24T14:59:58.350Z,38447.63
2018-12-24T15:02:16.479Z,38434.11
2018-12-24T15:04:27.871Z,38751.78
2018-12-24T15:06:48.103Z,38445.70
2018-12-24T15:09:23.051Z,38443.77
2018-12-24T15:11:41.276Z,38401.29
2018-12-24T15:13:51.585Z,38410.94
2018-12-24T15:16:02.213Z,38406.11
2018-12-24T15:18:13.518Z,38428.32
2018-12-24T15:20:32.261Z,38418.66
2018-12-24T15:22:37.931Z,38374.25
2018-12-24T15:24:43.879Z,38370.39
2018-12-24T15:26:50.530Z,38398.39
2018-12-24T15:28:56.300Z,38379.08
2018-12-24T15:31:03.075Z,38394.52
2018-12-24T15:33:09.204Z,38370.39
2018-12-24T15:35:14.798Z,38367.49
2018-12-24T15:37:20.786Z,38371.35
2018-12-24T15:39:26.865Z,38362.66
2018-12-24T15:41:32.575Z,38352.04
2018-12-24T15:43:38.485Z,38350.11
2018-12-24T15:45:44.594Z,38339.49
2018-12-24T15:47:50.313Z,38380.04
2018-12-24T15:49:56.660Z,38319.21
2018-12-24T15:52:02.766Z,38287.36
2018-12-24T15:54:08.518Z,38328.87
2018-12-24T15:56:14.203Z,38333.70
2018-12-24T15:58:19.920Z,38308.60
2018-12-24T16:00:25.825Z,38309.56
2018-12-24T16:02:32.534Z,38293.15
2018-12-24T16:04:38.895Z,38323.08
2018-12-24T16:06:44.979Z,38274.80
2018-12-24T16:08:50.745Z,38235.22
2018-12-24T16:10:56.923Z,38296.05
2018-12-24T16:13:02.635Z,38293.15
2018-12-24T16:15:08.791Z,38283.50
2018-12-24T16:17:14.813Z,38278.67
2018-12-24T16:19:20.919Z,38263.22
2018-12-24T16:21:27.469Z,38247.77
2018-12-24T16:23:33.549Z,38261.29
2018-12-24T16:25:39.247Z,38279.63
2018-12-24T16:27:45.048Z,38294.11
2018-12-24T16:29:51.719Z,38266.12
2018-12-24T16:31:58.375Z,38252.60
2018-12-24T16:34:05.004Z,38274.80
2018-12-24T16:36:50.607Z,38285.43
2018-12-24T16:39:09.567Z,38306.67
2018-12-24T16:43:46.412Z,38263.22
2018-12-24T16:45:52.120Z,38275.77
2018-12-24T16:47:57.810Z,38264.19
2018-12-24T16:50:03.636Z,38242.95
2018-12-24T16:52:09.427Z,38241.02
2018-12-24T16:54:15.324Z,38237.15
2018-12-24T16:56:25.580Z,38237.15
2018-12-24T16:58:31.256Z,38211.09
2018-12-24T17:00:36.950Z,38177.30
2018-12-24T17:03:01.663Z,38241.98
2018-12-24T17:05:07.389Z,38273.84
2018-12-24T17:07:32.518Z,38208.19
2018-12-24T17:09:38.397Z,36250.85
2018-12-24T17:11:46.700Z,38201.43
2018-12-24T17:13:54.068Z,38233.29
2018-12-24T17:16:00.768Z,38228.46
2018-12-24T17:18:27.440Z,38253.57
2018-12-24T17:20:36.255Z,38222.67
2018-12-24T17:22:42.274Z,38237.15
2018-12-24T17:24:50.454Z,38166.68
2018-12-24T17:26:56.837Z,38196.61
2018-12-24T17:29:02.556Z,38231.36
2018-12-24T17:31:10.161Z,38221.71
2018-12-24T17:33:41.128Z,38211.09
2018-12-24T17:35:46.988Z,36377.25
2018-12-24T17:37:53.159Z,38250.67
2018-12-24T17:39:59.140Z,38214.95
2018-12-24T17:42:06.568Z,38215.91
2018-12-24T17:44:31.682Z,38183.09
2018-12-24T17:46:50.547Z,38193.71
2018-12-24T17:48:45.246Z,38189.85
2018-12-24T17:50:54.943Z,38207.23
2018-12-24T17:53:00.805Z,38239.09
2018-12-24T17:55:25.585Z,38198.54
2018-12-24T17:57:36.898Z,38205.29
2018-12-24T18:00:01.845Z,38195.64
2018-12-24T18:02:08.184Z,38205.29
2018-12-24T18:04:14.274Z,38195.64
2018-12-24T18:06:39.146Z,38197.57
2018-12-24T18:08:49.983Z,38179.23
2018-12-24T18:10:58.641Z,38180.19
2018-12-24T18:13:05.403Z,38185.98
2018-12-24T18:15:49.197Z,38206.26
2018-12-24T18:18:13.880Z,38231.36
2018-12-24T18:23:06.630Z,38172.47
2018-12-24T18:25:13.211Z,38215.91
2018-12-24T18:27:22.554Z,38187.91
2018-12-24T18:30:07.498Z,38190.81
2018-12-24T18:32:13.216Z,38207.23
2018-12-24T18:34:18.944Z,38155.09
2018-12-24T18:36:24.697Z,38151.23
2018-12-24T18:38:32.700Z,38202.40
2018-12-24T18:40:57.435Z,38191.78
2018-12-24T18:43:15.936Z,38183.09
2018-12-24T18:45:16.284Z,38185.02
2018-12-24T18:47:21.967Z,38178.26
2018-12-24T18:49:29.380Z,38185.02
2018-12-24T18:51:38.509Z,38194.67
2018-12-24T18:56:22.578Z,38176.33
2018-12-24T18:58:28.202Z,38202.40
2018-12-24T19:00:33.836Z,38168.61
2018-12-24T19:04:59.647Z,38168.61
2018-12-24T19:07:05.395Z,38147.37
2018-12-24T19:09:11.336Z,38173.43
2018-12-24T19:11:19.741Z,38176.33
2018-12-24T19:13:39.524Z,38158.95
2018-12-24T19:15:36.081Z,38194.67
2018-12-24T19:17:44.704Z,38167.64
2018-12-24T19:22:58.755Z,38195.64
2018-12-24T19:25:08.748Z,38228.46
2018-12-24T19:27:19.557Z,38231.36
2018-12-24T19:29:30.344Z,38191.78
2018-12-24T19:31:55.140Z,38208.19
2018-12-24T19:34:07.391Z,38223.64
2018-12-24T19:36:13.052Z,38211.09
2018-12-24T19:38:18.745Z,38213.02
2018-12-24T19:40:24.676Z,38205.29
2018-12-24T19:42:30.698Z,38251.63
2018-12-24T19:44:37.090Z,38200.46
2018-12-24T19:46:42.877Z,38253.57
2018-12-24T19:48:50.634Z,38218.81
2018-12-24T19:50:56.406Z,38191.78
2018-12-24T19:53:05.081Z,38226.53
2018-12-24T19:55:29.843Z,38223.64
2018-12-24T19:57:35.631Z,38276.73
2018-12-24T19:59:41.276Z,38267.08
2018-12-24T20:06:10.973Z,38289.29
2018-12-24T20:08:16.739Z,38278.67
2018-12-24T20:10:22.595Z,38312.46
2018-12-24T20:12:28.568Z,38272.87
2018-12-24T20:14:34.202Z,38326.94
2018-12-24T20:16:40.237Z,38348.18
2018-12-24T20:18:46.271Z,38320.18
2018-12-24T20:20:51.975Z,38357.84
2018-12-24T20:23:17.251Z,38347.21
2018-12-24T20:25:23.499Z,38351.08
2018-12-24T20:27:29.259Z,38316.32
2018-12-24T20:29:34.893Z,38338.53
2018-12-24T20:31:40.606Z,38357.84
2018-12-24T20:36:12.699Z,38357.84
2018-12-24T20:38:18.690Z,38349.15
2018-12-24T20:40:24.320Z,38337.56
2018-12-24T20:42:49.019Z,38358.80
2018-12-24T20:44:55.042Z,38341.42
2018-12-24T20:47:00.670Z,38353.01
2018-12-24T20:49:06.381Z,38338.53
2018-12-24T20:51:16.276Z,38363.63
2018-12-24T20:53:19.877Z,38349.15
2018-12-24T20:55:26.468Z,37599.05
2018-12-24T20:57:32.435Z,38297.01
2018-12-24T20:59:38.409Z,38345.29
2018-12-24T21:01:44.114Z,38368.46
2018-12-24T21:03:49.811Z,38371.35
2018-12-24T21:05:56.247Z,38372.32
2018-12-24T21:08:04.373Z,38375.21
2018-12-24T21:10:10.650Z,38382.94
2018-12-24T21:12:16.751Z,38352.04
2018-12-24T21:14:22.876Z,38331.77
2018-12-24T21:16:29.977Z,38366.52
2018-12-24T21:18:38.157Z,38402.25
2018-12-24T21:20:44.572Z,38365.56
2018-12-24T21:22:50.547Z,38365.56
2018-12-24T21:24:56.237Z,38393.56
2018-12-24T21:27:01.948Z,38426.39
2018-12-24T21:29:07.672Z,37929.19
2018-12-24T21:31:13.677Z,38398.39
2018-12-24T21:33:38.358Z,38376.18
2018-12-24T21:35:56.508Z,38401.29
2018-12-24T21:38:02.508Z,38405.14
2018-12-24T21:40:08.200Z,38361.70
2018-12-24T21:42:14.702Z,38464.04
2018-12-24T21:44:20.410Z,38343.36
2018-12-24T21:46:45.194Z,38351.08
2018-12-24T21:48:51.134Z,39301.25
2018-12-24T21:51:15.825Z,38374.25
2018-12-24T21:53:22.882Z,38366.52
2018-12-24T21:55:28.536Z,38429.28
2018-12-24T21:57:34.514Z,38377.14
2018-12-24T21:59:40.460Z,38342.39
2018-12-24T22:01:47.361Z,38406.11
2018-12-24T22:03:53.050Z,38345.29
2018-12-24T22:05:58.704Z,38358.80
2018-12-24T22:08:04.347Z,38421.56
2018-12-24T22:10:29.186Z,38377.14
2018-12-24T22:12:34.899Z,36640.68
2018-12-24T22:14:41.578Z,38366.52
2018-12-24T22:17:09.596Z,38367.49
2018-12-24T22:18:54.845Z,38316.32
2018-12-24T22:21:01.684Z,38400.32
2018-12-24T22:23:07.677Z,38378.11
2018-12-24T22:25:13.752Z,38351.08
2018-12-24T22:27:20.110Z,38371.35
2018-12-24T22:29:25.997Z,38333.70
2018-12-24T22:31:51.331Z,38381.97
2018-12-24T22:34:16.035Z,38457.28
2018-12-24T22:36:23.424Z,38401.29
2018-12-24T22:38:29.062Z,38394.52
2018-12-24T22:40:34.751Z,38423.49
2018-12-24T22:42:59.747Z,38438.94
2018-12-24T22:45:24.508Z,38392.59
2018-12-24T22:47:30.647Z,38389.70
2018-12-24T22:49:54.685Z,38429.28
2018-12-24T22:52:00.408Z,38385.84
2018-12-24T22:54:25.161Z,38380.04
2018-12-24T22:56:30.853Z,38361.70
2018-12-24T22:58:36.865Z,38396.46
2018-12-24T23:00:47.020Z,38374.25
2018-12-24T23:02:52.648Z,38360.73
2018-12-24T23:04:59.036Z,38374.25
2018-12-24T23:07:05.678Z,38353.98
2018-12-24T23:09:11.327Z,38357.84
2018-12-24T23:11:29.072Z,38368.46
2018-12-24T23:13:34.731Z,38353.98
2018-12-24T23:15:40.384Z,38352.04
2018-12-24T23:17:46.062Z,38351.08
2018-12-24T23:19:51.880Z,38337.56
2018-12-24T23:21:58.739Z,38355.91
2018-12-24T23:24:23.430Z,38350.11
2018-12-24T23:26:29.047Z,38377.14
2018-12-24T23:28:34.636Z,38409.01
2018-12-24T23:30:40.597Z,38335.63
2018-12-24T23:32:46.666Z,38364.59
2018-12-24T23:34:55.128Z,38355.91
2018-12-24T23:37:00.819Z,38343.36
2018-12-24T23:39:07.808Z,38389.70
2018-12-24T23:41:13.379Z,38410.94
2018-12-24T23:43:38.370Z,38410.94
2018-12-24T23:45:44.286Z,38404.18
2018-12-24T23:47:50.279Z,38386.80
2018-12-24T23:49:56.229Z,38419.63
2018-12-24T23:52:04.347Z,38426.39
2018-12-24T23:54:28.984Z,38385.84
2018-12-24T23:56:34.694Z,38401.29
2018-12-24T23:58:40.773Z,38407.08
